QUAO2: Spring River Near Quapaw, OK

Data processed at Tue May 21 2019 21:30


All information presented herein is the property of the government of the United States of America and may be revised or deleted at any time without prior notice.
Dissemination of this information without the expressed written consent of the Public Affairs Office, Tulsa District U.S. Army Corps of Engineers is strictly prohibited.
These data are gathered electronically and, as presented, have not undergone any form of quality control. These data are not guaranteed to be valid or correct.
Go to home page.
Go to station list.
Go to home page.

Upstream stations:

Downstream station:
Previous Day
Next Day
Current Day
    
SHEF ID:       QUAO2     Spring River near Quapaw, OK
STATION TYPE:  
Regulating: Stage =    20.00, Flow =    32739

               PRECIP     STAGE  STAGE(2)  RIV-FLOW  BAT-LOAD
                   in        ft        ft       cfs      volt
              Ccp-Rev   Ccp-Rev   Ccp-Rev   Ccp-Rev   Ccp-Rev
(US/Central)
05/21 00:00      0.13     18.90     19.10     28886     12.41
05/21 01:00      0.03     20.61     21.02     34961     12.33
05/21 02:00      0.56     21.89     22.26     39817     12.33
05/21 03:00      0.18     22.88     23.28     43749     12.33
05/21 04:00      0.01     23.63     23.92     46829     12.33
05/21 05:00      0.00     23.96     24.40     48212     12.25
05/21 06:00      0.00     24.21     24.78     49270     12.25
05/21 07:00      0.00     24.60     25.00     50940     12.25
05/21 08:00      0.00     24.84     25.25     51979     12.33
05/21 09:00      0.56     24.84     25.52     51979     12.25
05/21 10:00      0.29     25.30     25.79     53994     12.33
05/21 11:00      0.18     25.60     26.11     55326     12.33
05/21 12:00      0.06     25.94     26.36     56851     12.33
05/21 13:00      0.04     26.13     26.68     57711     12.81
05/21 14:00      0.02     26.28     26.89     58393      ----
05/21 15:00      0.01     26.72     27.09     60449     12.81
05/21 16:00      0.01     26.71     27.25     60399     12.81
05/21 17:00      0.00     26.66     27.39     60159     13.44
05/21 18:00      0.00     26.99     27.44     61801     13.44
05/21 19:00      0.00     26.92     27.49     61442     13.29
05/21 20:00      0.00     26.89     27.53     61290     13.13
05/21 21:00      0.00     26.95     27.59     61596     12.65
05/21 22:00      ----      ----      ----      ----      ----
05/21 23:00      ----      ----      ----      ----      ----